Portada
METAR-TAF:

METAR-TAF

Aeropuertos :

Aeropuerto Internacional Rey Fahd

Dammam, Arabia Saudita

latitud: 26-28N, longitud: 049-47E, altitud: 22 m

Observación

El informe se hizo hace 13 minutos, a las 06:00 UTC
Viento 6 kt del sur
Temperatura 40°C
Humedad 19%
Presión 1004 hPa
Visibilidad 10 km o más
sin nubes por debajo de 1500 m y sin presencia de cumulonimbus.

METAR: OEDF 020600Z 17006KT CAVOK 40/12 Q1004 NOSIG

Hora: 09:13 (06:13 UTC)

Pronóstico

El informe se hizo hace 9 horas y 18 minutos, a las 20:55 UTC
Pronóstico válido del 02 a las 00 UTC al 03 a las 06 UTC
Viento 7 kt del suroeste
Visibilidad: 8000 m
Probabilidad 30% :
Temporalmente
del 02 a las 00 UTC al 02 a las 04 UTC
Visibilidad: 5000 m
calima
Evolucionando progresivamente
del 02 a las 08 UTC al 02 a las 10 UTC
Viento 15 kt del este-noreste

TAF: OEDF 012055Z 0200/0306 22007KT 8000 NSC PROB30 TEMPO 0200/0204 5000 HZ BECMG 0208/0210 07015KT

Observaciones y pronósticos meteorológicos de más de 4000 aeropuertos (mensajes METAR y TAF).

Los puntos amarillos y rojos representan las estaciones disponibles.

Ponga el ratón en el punto deseado para ver el nombre de la estación.

Haga clic para ver las observaciones y los pronósticos meteorológicos.

Para cambiar el mapa : haga clic en los botones verdes con una cruz de color negro para hacer un zoom, en el botón verde con un guión para alejar o en las flechas verdes para mapas adyacentes.


METAR-TAF: